Cortez, CO

19:12 MST 22. Prosinec 2014 (GMT -0700)
Cortez Municipal | Change Station
CLOSE
Current Station
Letiště
Location: Cortez,
Nadmořská výška: 5915 ft
Poblíž povětrnostní stanice

Výška 5915 ft 37.31 °N, 108.63 °W | Updated 19 minutes ago

Skoro zataženo
Skoro zataženo
41 °F
Pocit jako 34 °F
S
14
Vítr proměnlivý Vítr od SZ
Gusts 25 mil/h

Dnes
Vysoké -- | Nízké -- °F
--% Možnost srážek
Včera
Vysoké -- | Nízké -- °F
Precip. -- inčů
7:25 AM 5:01 PM
Nový měsíc, 1% visible
Tlak 29.77 inčů
Viditelnost 10.0 mílí
Zataženo Zataženo 9500 ft
Ochlazování větrem 34 °F
Rosný bod 22 °F
Vlhkost 47%
Dešťové srážky 0.02 inčů
Sněhová pokrývka Není k dispozici
UV záření 0 ze 12
Pyl 2.90 ze 12
Kvalita ovzduší Není k dispozici
Flu Activity Není k dispozici
METAR KCEZ 230153Z AUTO 32012G22KT 10SM OVC095 05/M06 A2982 RMK AO2 SLP080 T00501056

More Conditions Fewer Conditions

Tlak 29.77 inčů
Viditelnost 10.0 mílí
Zataženo Zataženo 9500 ft
Ochlazování větrem 34 °F
Rosný bod 22 °F
Vlhkost 47%
Dešťové srážky 0.02 inčů
Sněhová pokrývka Není k dispozici
UV záření 0 ze 12
Pyl 2.90 ze 12
Kvalita ovzduší Není k dispozici
Flu Activity Není k dispozici
METAR KCEZ 230153Z AUTO 32012G22KT 10SM OVC095 05/M06 A2982 RMK AO2 SLP080 T00501056

More Conditions Fewer Conditions

10-Day Weather Forecast

Almanac

Astronomie

Dec. 22, 2014 Východ Západ
Skutečný čas
Občanský soumrak
Námořní soumrak
Astronomický soumrak
Měsíc
Délka denního světla
Délka dne
Tomorrow will be .
, % of the Moon is Illuminated

Dnešní extrémy

State Highs State Lows

Community

WunderPhotos

Upload Photos

1,779,761 snímků staženo!

WunderBlogs® & News

Nearby

Kvalita ovzduší

  Kvalita ovzduší Index kvality ovzduší Polutant
Not available.

Výška sněhu

Station Hloubka Nadmořská výška

Seizmická činnost

Město Distance Mag. Čas & datum
Minimální zobrazený rozsah je 2.5.

Pobřežní teplota vody

Lokalita Teplota

Poblíž povětrnostní stanice